createdAt,value
2023-02-20T00:00:34.849Z,2.20
2023-02-20T00:03:03.779Z,1.10
2023-02-20T00:05:35.138Z,1.00
2023-02-20T00:08:03.508Z,1.30
2023-02-20T00:10:32.834Z,1.20
2023-02-20T00:13:05.081Z,1.20
2023-02-20T00:15:37.156Z,1.30
2023-02-20T00:18:07.257Z,1.10
2023-02-20T00:20:42.273Z,1.40
2023-02-20T00:23:12.026Z,1.80
2023-02-20T00:25:40.480Z,1.90
2023-02-20T00:28:14.285Z,2.10
2023-02-20T00:30:42.845Z,2.00
2023-02-20T00:33:13.809Z,2.00
2023-02-20T00:35:42.290Z,2.00
2023-02-20T00:38:17.226Z,2.40
2023-02-20T00:40:47.546Z,2.20
2023-02-20T00:43:16.026Z,2.50
2023-02-20T00:45:44.207Z,2.40
2023-02-20T00:48:12.692Z,2.40
2023-02-20T00:50:40.962Z,2.50
2023-02-20T00:53:09.467Z,2.60
2023-02-20T00:55:38.125Z,2.30
2023-02-20T00:58:06.502Z,2.40
2023-02-20T01:00:34.878Z,2.70
2023-02-20T01:03:03.501Z,2.10
2023-02-20T01:05:32.041Z,2.40
2023-02-20T01:08:00.626Z,2.40
2023-02-20T01:10:30.253Z,2.30
2023-02-20T01:12:58.724Z,2.10
2023-02-20T01:15:27.065Z,2.30
2023-02-20T01:17:56.410Z,2.10
2023-02-20T01:20:26.408Z,2.30
2023-02-20T01:22:56.322Z,2.20
2023-02-20T01:25:24.800Z,1.90
2023-02-20T01:27:53.177Z,2.00
2023-02-20T01:30:22.113Z,1.80
2023-02-20T01:32:50.662Z,2.30
2023-02-20T01:35:20.265Z,2.20
2023-02-20T01:37:48.739Z,2.10
2023-02-20T01:40:20.529Z,2.00
2023-02-20T01:42:48.876Z,2.10
2023-02-20T01:45:22.295Z,2.00
2023-02-20T01:47:53.216Z,1.90
2023-02-20T01:50:44.890Z,2.10
2023-02-20T01:53:19.371Z,2.30
2023-02-20T01:55:58.707Z,1.90
2023-02-20T01:58:31.456Z,2.40
2023-02-20T02:01:03.064Z,2.40
2023-02-20T02:03:34.173Z,2.40
2023-02-20T02:06:08.150Z,2.30
2023-02-20T02:08:37.397Z,2.30
2023-02-20T02:11:06.791Z,2.10
2023-02-20T02:13:36.895Z,2.20
2023-02-20T02:16:12.741Z,2.10
2023-02-20T02:19:03.447Z,2.40
2023-02-20T02:21:49.138Z,2.30
2023-02-20T02:24:23.445Z,2.30
2023-02-20T02:27:00.852Z,2.40
2023-02-20T02:29:55.941Z,3.00
2023-02-20T02:33:04.252Z,2.40
2023-02-20T02:35:59.278Z,2.80
2023-02-20T02:38:33.378Z,2.40
2023-02-20T02:41:09.115Z,2.60
2023-02-20T02:43:52.965Z,2.70
2023-02-20T02:46:24.304Z,2.40
2023-02-20T02:49:24.018Z,2.60
2023-02-20T02:51:54.551Z,2.50
2023-02-20T02:54:28.910Z,3.00
2023-02-20T02:57:18.234Z,2.60
2023-02-20T02:59:46.611Z,2.90
2023-02-20T03:02:16.040Z,2.40
2023-02-20T03:04:44.494Z,2.40
2023-02-20T03:07:16.258Z,2.80
2023-02-20T03:09:54.596Z,2.40
2023-02-20T03:12:23.555Z,2.50
2023-02-20T03:15:31.820Z,2.90
2023-02-20T03:18:11.019Z,2.80
2023-02-20T03:20:45.840Z,2.80
2023-02-20T03:23:20.245Z,2.60
2023-02-20T03:25:56.220Z,3.00
2023-02-20T03:28:29.036Z,3.00
2023-02-20T03:31:16.589Z,2.50
2023-02-20T03:34:07.322Z,3.10
2023-02-20T03:36:58.226Z,3.40
2023-02-20T03:39:49.060Z,3.20
2023-02-20T03:42:37.407Z,3.00
2023-02-20T03:45:11.593Z,3.80
2023-02-20T03:47:43.574Z,3.80
2023-02-20T03:50:12.759Z,3.40
2023-02-20T03:52:42.565Z,3.60
2023-02-20T03:57:45.474Z,3.40
2023-02-20T04:00:22.148Z,3.50
2023-02-20T04:02:57.379Z,3.10
2023-02-20T04:05:31.098Z,3.30
2023-02-20T04:08:21.692Z,3.20
2023-02-20T04:11:00.401Z,3.50
2023-02-20T04:13:34.616Z,3.40
2023-02-20T04:16:03.915Z,3.80
2023-02-20T04:18:32.914Z,4.50
2023-02-20T04:21:03.551Z,3.60
2023-02-20T04:23:36.935Z,3.40
2023-02-20T04:26:19.151Z,3.70
2023-02-20T04:28:48.636Z,3.60
2023-02-20T04:31:18.279Z,3.50
2023-02-20T04:33:47.539Z,3.30
2023-02-20T04:36:20.734Z,3.40
2023-02-20T04:38:49.619Z,3.70
2023-02-20T04:41:19.943Z,3.20
2023-02-20T04:43:49.652Z,3.70
2023-02-20T04:46:19.295Z,3.40
2023-02-20T04:48:48.759Z,3.90
2023-02-20T04:51:17.139Z,3.10
2023-02-20T04:53:46.029Z,3.30
2023-02-20T04:56:16.964Z,3.20
2023-02-20T04:58:49.848Z,3.80
2023-02-20T05:01:21.464Z,3.90
2023-02-20T05:03:50.028Z,3.70
2023-02-20T05:06:18.586Z,3.40
2023-02-20T05:08:49.349Z,4.10
2023-02-20T05:11:18.501Z,4.30
2023-02-20T05:13:47.105Z,3.60
2023-02-20T05:16:16.051Z,3.40
2023-02-20T05:18:45.887Z,4.00
2023-02-20T05:21:33.720Z,3.60
2023-02-20T05:24:04.541Z,3.80
2023-02-20T05:26:34.181Z,4.00
2023-02-20T05:29:02.543Z,3.40
2023-02-20T05:31:31.107Z,3.60
2023-02-20T05:39:52.885Z,3.90
2023-02-20T05:42:23.222Z,4.10
2023-02-20T05:44:53.470Z,4.30
2023-02-20T05:47:21.602Z,4.00
2023-02-20T05:49:50.494Z,3.90
2023-02-20T05:52:19.196Z,4.90
2023-02-20T05:54:49.274Z,4.50
2023-02-20T05:57:18.200Z,4.50
2023-02-20T05:59:46.666Z,4.70
2023-02-20T06:02:15.249Z,4.80
2023-02-20T06:04:43.851Z,4.70
2023-02-20T06:07:12.768Z,5.00
2023-02-20T06:09:44.579Z,4.70
2023-02-20T06:12:12.962Z,4.70
2023-02-20T06:14:42.057Z,4.40
2023-02-20T06:17:10.650Z,4.60
2023-02-20T06:19:39.323Z,3.90
2023-02-20T06:22:08.831Z,4.90
2023-02-20T06:24:37.448Z,4.20
2023-02-20T06:27:06.669Z,4.00
2023-02-20T06:29:34.897Z,4.00
2023-02-20T06:32:03.782Z,3.90
2023-02-20T06:34:34.202Z,4.10
2023-02-20T06:37:03.404Z,4.30
2023-02-20T06:39:32.501Z,4.10
2023-02-20T06:42:01.188Z,4.80
2023-02-20T06:44:30.902Z,4.30
2023-02-20T06:47:00.244Z,4.00
2023-02-20T06:49:28.982Z,4.50
2023-02-20T06:51:57.767Z,4.30
2023-02-20T06:54:26.156Z,4.40
2023-02-20T06:56:54.563Z,3.70
2023-02-20T06:59:23.432Z,3.50
2023-02-20T07:01:51.905Z,4.00
2023-02-20T07:04:22.321Z,3.40
2023-02-20T07:06:51.107Z,3.70
2023-02-20T07:09:20.718Z,3.90
2023-02-20T07:11:50.736Z,3.90
2023-02-20T07:14:19.108Z,4.00
2023-02-20T07:16:47.588Z,4.30
2023-02-20T07:19:22.223Z,3.60
2023-02-20T07:21:51.313Z,3.30
2023-02-20T07:24:19.795Z,3.70
2023-02-20T07:26:48.475Z,2.90
2023-02-20T07:29:16.752Z,3.10
2023-02-20T07:31:45.534Z,3.50
2023-02-20T07:34:14.458Z,3.70
2023-02-20T07:36:43.109Z,3.50
2023-02-20T07:39:13.035Z,3.00
2023-02-20T07:41:42.326Z,3.20
2023-02-20T07:44:31.184Z,3.20
2023-02-20T07:47:01.406Z,3.00
2023-02-20T07:49:29.986Z,2.80
2023-02-20T07:55:22.760Z,2.80
2023-02-20T07:57:54.614Z,3.20
2023-02-20T08:02:58.844Z,2.50
2023-02-20T08:05:29.583Z,2.90
2023-02-20T08:08:01.032Z,3.30
2023-02-20T08:10:29.757Z,3.30
2023-02-20T08:12:58.509Z,2.80
2023-02-20T08:15:27.595Z,2.50
2023-02-20T08:17:56.179Z,2.70
2023-02-20T08:20:24.873Z,2.50
2023-02-20T08:22:53.555Z,2.70
2023-02-20T08:25:21.947Z,2.60
2023-02-20T08:27:50.819Z,2.90
2023-02-20T08:30:28.344Z,2.80
2023-02-20T08:32:56.800Z,2.90
2023-02-20T08:35:25.501Z,2.40
2023-02-20T08:37:54.464Z,2.80
2023-02-20T08:40:22.952Z,3.10
2023-02-20T08:42:51.457Z,2.80
2023-02-20T08:45:20.336Z,2.80
2023-02-20T08:47:50.227Z,2.80
2023-02-20T08:50:19.329Z,3.30
2023-02-20T08:52:48.577Z,3.10
2023-02-20T08:55:17.004Z,3.40
2023-02-20T08:57:45.788Z,3.90
2023-02-20T09:00:15.895Z,3.50
2023-02-20T09:02:44.553Z,3.80
2023-02-20T09:05:15.837Z,4.00
2023-02-20T09:07:45.656Z,4.00
2023-02-20T09:10:19.352Z,4.00
2023-02-20T09:12:48.686Z,4.60
2023-02-20T09:15:19.896Z,4.70
2023-02-20T09:17:51.056Z,4.80
2023-02-20T09:20:23.107Z,4.60
2023-02-20T09:22:57.429Z,4.50
2023-02-20T09:27:59.403Z,4.30
2023-02-20T09:30:28.142Z,3.90
2023-02-20T09:32:56.568Z,3.60
2023-02-20T09:35:27.224Z,3.30
2023-02-20T09:37:56.309Z,3.40
2023-02-20T09:40:26.839Z,2.80
2023-02-20T09:43:15.618Z,2.50
2023-02-20T09:45:59.757Z,2.70
2023-02-20T09:48:59.646Z,2.30
2023-02-20T09:51:31.306Z,2.80
2023-02-20T09:54:03.985Z,2.40
2023-02-20T09:56:39.748Z,2.40
2023-02-20T09:59:15.528Z,2.60
2023-02-20T10:02:04.112Z,2.70
2023-02-20T10:04:47.063Z,2.70
2023-02-20T10:07:22.698Z,2.40
2023-02-20T10:09:51.999Z,2.40
2023-02-20T10:12:36.970Z,2.60
2023-02-20T10:15:22.646Z,2.90
2023-02-20T10:18:21.234Z,3.20
2023-02-20T10:21:08.260Z,2.90
2023-02-20T10:23:47.277Z,2.70
2023-02-20T10:26:23.789Z,2.70
2023-02-20T10:28:52.676Z,3.30
2023-02-20T10:31:39.257Z,3.50
2023-02-20T10:34:29.451Z,3.00
2023-02-20T10:37:04.257Z,3.10
2023-02-20T10:39:32.819Z,2.70
2023-02-20T10:42:13.822Z,2.80
2023-02-20T10:45:14.862Z,2.80
2023-02-20T10:47:43.966Z,3.20
2023-02-20T10:50:23.096Z,2.60
2023-02-20T10:52:54.668Z,2.50
2023-02-20T10:55:28.602Z,2.40
2023-02-20T10:58:00.521Z,2.50
2023-02-20T11:00:46.366Z,2.40
2023-02-20T11:03:18.156Z,2.90
2023-02-20T11:05:52.619Z,2.50
2023-02-20T11:08:22.003Z,2.10
2023-02-20T11:10:53.634Z,2.60
2023-02-20T11:13:23.858Z,3.50
2023-02-20T11:15:54.695Z,3.20
2023-02-20T11:20:57.078Z,3.00
2023-02-20T11:23:44.527Z,3.90
2023-02-20T11:26:32.249Z,3.20
2023-02-20T11:29:02.784Z,3.30
2023-02-20T11:31:32.094Z,4.20
2023-02-20T11:34:01.572Z,2.80
2023-02-20T11:36:35.136Z,2.50
2023-02-20T11:39:07.040Z,2.90
2023-02-20T11:41:37.143Z,2.50
2023-02-20T11:44:26.224Z,2.60
2023-02-20T11:47:28.512Z,2.40
2023-02-20T11:50:20.692Z,4.60
2023-02-20T11:53:00.733Z,4.00
2023-02-20T11:55:29.885Z,3.20
2023-02-20T11:57:58.342Z,2.90
2023-02-20T12:00:46.553Z,2.50
2023-02-20T12:03:21.316Z,2.00
2023-02-20T12:05:50.571Z,1.90
2023-02-20T12:08:37.997Z,2.10
2023-02-20T12:11:15.231Z,2.20
2023-02-20T12:13:45.302Z,2.50
2023-02-20T12:16:25.907Z,3.10
2023-02-20T12:19:04.824Z,2.50
2023-02-20T12:21:54.619Z,2.10
2023-02-20T12:24:45.722Z,1.60
2023-02-20T12:27:40.614Z,1.70
2023-02-20T12:30:40.248Z,1.60
2023-02-20T12:33:10.670Z,1.60
2023-02-20T12:35:51.524Z,1.80
2023-02-20T12:38:47.657Z,1.60
2023-02-20T12:41:47.206Z,1.80
2023-02-20T12:44:53.018Z,1.70
2023-02-20T12:47:30.001Z,1.40
2023-02-20T12:50:10.765Z,1.50
2023-02-20T12:53:00.550Z,2.20
2023-02-20T12:55:57.904Z,1.40
2023-02-20T12:58:27.103Z,1.50
2023-02-20T13:01:05.532Z,1.20
2023-02-20T13:04:04.621Z,1.10
2023-02-20T13:06:33.095Z,1.20
2023-02-20T13:09:11.509Z,1.20
2023-02-20T13:11:43.482Z,1.40
2023-02-20T13:14:15.130Z,1.30
2023-02-20T13:19:31.335Z,1.20
2023-02-20T13:22:00.775Z,2.00
2023-02-20T13:24:31.189Z,2.30
2023-02-20T13:27:07.065Z,1.30
2023-02-20T13:29:39.395Z,1.20
2023-02-20T13:32:19.808Z,1.30
2023-02-20T13:34:48.439Z,1.80
2023-02-20T13:37:40.569Z,2.80
2023-02-20T13:40:27.581Z,2.70
2023-02-20T13:43:27.604Z,1.70
2023-02-20T13:46:07.522Z,1.30
2023-02-20T13:48:44.328Z,1.40
2023-02-20T13:51:16.620Z,1.80
2023-02-20T13:53:49.590Z,3.80
2023-02-20T13:56:23.281Z,4.10
2023-02-20T13:58:51.678Z,8.80
2023-02-20T14:01:20.162Z,5.00
2023-02-20T14:04:03.281Z,3.10
2023-02-20T14:06:31.751Z,2.60
2023-02-20T14:09:27.782Z,2.60
2023-02-20T14:11:56.459Z,1.90
2023-02-20T14:14:33.758Z,1.50
2023-02-20T14:17:15.867Z,1.60
2023-02-20T14:19:47.921Z,1.40
2023-02-20T14:22:22.435Z,1.70
2023-02-20T14:25:21.736Z,1.30
2023-02-20T14:27:50.539Z,1.20
2023-02-20T14:30:22.927Z,1.60
2023-02-20T14:32:53.313Z,1.20
2023-02-20T14:35:47.914Z,1.10
2023-02-20T14:38:19.923Z,1.20
2023-02-20T14:40:48.363Z,1.40
2023-02-20T14:43:22.832Z,1.20
2023-02-20T14:46:02.777Z,1.10
2023-02-20T14:48:33.930Z,1.30
2023-02-20T14:51:12.591Z,1.00
2023-02-20T14:53:42.920Z,1.30
2023-02-20T14:56:14.425Z,1.50
2023-02-20T14:58:43.661Z,1.20
2023-02-20T15:01:24.830Z,1.20
2023-02-20T15:04:06.227Z,1.40
2023-02-20T15:06:35.730Z,1.10
2023-02-20T15:09:19.810Z,1.10
2023-02-20T15:11:58.425Z,1.30
2023-02-20T15:14:29.126Z,1.30
2023-02-20T15:17:13.587Z,1.40
2023-02-20T15:19:44.216Z,1.10
2023-02-20T15:22:31.149Z,1.70
2023-02-20T15:25:14.287Z,1.00
2023-02-20T15:28:08.536Z,1.10
2023-02-20T15:31:05.442Z,0.90
2023-02-20T15:33:40.525Z,0.80
2023-02-20T15:36:14.174Z,1.20
2023-02-20T15:38:42.922Z,1.10
2023-02-20T15:41:11.642Z,1.40
2023-02-20T15:43:51.119Z,1.40
2023-02-20T15:46:20.029Z,0.90
2023-02-20T15:48:48.503Z,1.50
2023-02-20T15:51:21.825Z,1.10
2023-02-20T15:53:51.633Z,1.10
2023-02-20T15:56:20.840Z,1.10
2023-02-20T15:58:49.691Z,1.00
2023-02-20T16:01:18.223Z,0.80
2023-02-20T16:03:53.021Z,1.00
2023-02-20T16:06:22.981Z,0.60
2023-02-20T16:08:52.653Z,0.80
2023-02-20T16:11:22.359Z,1.00
2023-02-20T16:13:54.405Z,1.20
2023-02-20T16:16:25.763Z,1.20
2023-02-20T16:18:55.305Z,1.80
2023-02-20T16:21:24.629Z,1.60
2023-02-20T16:23:53.661Z,2.10
2023-02-20T16:26:24.122Z,2.70
2023-02-20T16:28:58.085Z,3.60
2023-02-20T16:32:01.174Z,4.50
2023-02-20T16:34:35.384Z,4.00
2023-02-20T16:37:03.981Z,3.50
2023-02-20T16:39:32.863Z,3.20
2023-02-20T16:42:01.444Z,3.30
2023-02-20T16:44:40.508Z,3.40
2023-02-20T16:47:17.205Z,3.30
2023-02-20T16:49:46.147Z,2.50
2023-02-20T16:52:39.824Z,2.60
2023-02-20T16:55:33.781Z,2.20
2023-02-20T16:58:02.469Z,1.80
2023-02-20T17:00:34.886Z,2.00
2023-02-20T17:03:04.248Z,1.60
2023-02-20T17:05:33.550Z,1.30
2023-02-20T17:08:02.433Z,1.50
2023-02-20T17:10:36.854Z,3.50
2023-02-20T17:13:05.336Z,4.40
2023-02-20T17:15:35.210Z,3.70
2023-02-20T17:18:08.643Z,4.70
2023-02-20T17:20:39.095Z,3.70
2023-02-20T17:23:07.549Z,2.90
2023-02-20T17:25:36.150Z,2.80
2023-02-20T17:28:05.237Z,2.40
2023-02-20T17:30:34.352Z,2.20
2023-02-20T17:33:02.801Z,2.40
2023-02-20T17:35:33.231Z,2.90
2023-02-20T17:38:01.618Z,3.60
2023-02-20T17:40:30.120Z,3.10
2023-02-20T17:42:58.571Z,2.60
2023-02-20T17:45:27.164Z,2.40
2023-02-20T17:47:55.736Z,3.50
2023-02-20T17:50:24.218Z,4.60
2023-02-20T17:52:56.692Z,4.00
2023-02-20T17:57:55.088Z,2.60
2023-02-20T18:00:26.125Z,2.40
2023-02-20T18:02:55.012Z,3.20
2023-02-20T18:05:23.311Z,4.20
2023-02-20T18:07:51.787Z,4.10
2023-02-20T18:10:20.167Z,5.10
2023-02-20T18:13:02.931Z,4.10
2023-02-20T18:15:33.608Z,4.50
2023-02-20T18:18:06.686Z,5.80
2023-02-20T18:20:36.295Z,5.30
2023-02-20T18:23:04.977Z,5.30
2023-02-20T18:25:40.527Z,4.80
2023-02-20T18:28:10.072Z,4.00
2023-02-20T18:30:39.609Z,3.70
2023-02-20T18:33:09.031Z,3.50
2023-02-20T18:35:42.327Z,3.50
2023-02-20T18:38:11.215Z,3.40
2023-02-20T18:40:41.030Z,3.50
2023-02-20T18:43:09.619Z,3.40
2023-02-20T18:45:38.314Z,2.90
2023-02-20T18:48:07.500Z,3.10
2023-02-20T18:50:35.859Z,2.90
2023-02-20T18:53:04.970Z,3.30
2023-02-20T18:55:34.076Z,3.60
2023-02-20T18:58:04.084Z,3.30
2023-02-20T19:00:34.951Z,3.60
2023-02-20T19:03:06.774Z,3.70
2023-02-20T19:05:35.601Z,3.30
2023-02-20T19:08:04.757Z,3.60
2023-02-20T19:10:34.817Z,3.70
2023-02-20T19:13:04.177Z,3.60
2023-02-20T19:15:34.375Z,3.70
2023-02-20T19:18:03.593Z,4.40
2023-02-20T19:20:32.382Z,4.90
2023-02-20T19:23:02.516Z,4.80
2023-02-20T19:25:31.245Z,5.50
2023-02-20T19:27:59.687Z,5.80
2023-02-20T19:30:28.183Z,5.90
2023-02-20T19:32:58.182Z,5.40
2023-02-20T19:35:26.439Z,5.50
2023-02-20T19:37:55.742Z,6.20
2023-02-20T19:40:24.434Z,6.40
2023-02-20T19:42:53.110Z,6.10
2023-02-20T19:45:21.590Z,6.00
2023-02-20T19:47:50.896Z,5.70
2023-02-20T19:50:21.111Z,6.10
2023-02-20T19:52:49.802Z,6.40
2023-02-20T19:55:19.513Z,6.50
2023-02-20T19:57:48.018Z,6.40
2023-02-20T20:00:18.310Z,6.00
2023-02-20T20:02:47.951Z,6.40
2023-02-20T20:05:16.908Z,7.20
2023-02-20T20:07:45.397Z,6.90
2023-02-20T20:10:19.612Z,7.40
2023-02-20T20:12:48.415Z,7.50
2023-02-20T20:15:21.647Z,8.40
2023-02-20T20:17:55.804Z,7.90
2023-02-20T20:20:24.483Z,7.50
2023-02-20T20:22:54.397Z,7.90
2023-02-20T20:25:23.599Z,7.50
2023-02-20T20:27:52.385Z,7.30
2023-02-20T20:30:26.008Z,7.20
2023-02-20T20:32:55.279Z,8.00
2023-02-20T20:35:24.885Z,7.90
2023-02-20T20:37:54.298Z,8.20
2023-02-20T20:40:23.689Z,7.20
2023-02-20T20:42:52.887Z,7.70
2023-02-20T20:45:21.993Z,7.50
2023-02-20T20:47:50.770Z,7.50
2023-02-20T20:50:22.755Z,6.80
2023-02-20T20:52:51.111Z,6.80
2023-02-20T20:55:19.793Z,7.00
2023-02-20T20:57:51.758Z,7.20
2023-02-20T21:00:41.435Z,7.40
2023-02-20T21:03:11.217Z,7.50
2023-02-20T21:05:39.750Z,7.30
2023-02-20T21:08:09.557Z,7.50
2023-02-20T21:10:38.557Z,7.70
2023-02-20T21:13:10.906Z,7.50
2023-02-20T21:15:42.431Z,7.40
2023-02-20T21:18:11.349Z,6.80
2023-02-20T21:20:39.823Z,8.00
2023-02-20T21:23:11.067Z,8.00
2023-02-20T21:25:42.054Z,7.70
2023-02-20T21:28:11.317Z,7.80
2023-02-20T21:30:40.121Z,7.70
2023-02-20T21:33:08.472Z,7.30
2023-02-20T21:35:36.985Z,7.70
2023-02-20T21:38:05.437Z,8.00
2023-02-20T21:40:34.631Z,7.00
2023-02-20T21:43:21.862Z,7.40
2023-02-20T21:45:50.157Z,7.40
2023-02-20T21:48:18.913Z,7.00
2023-02-20T21:50:47.291Z,6.40
2023-02-20T21:53:18.552Z,6.70
2023-02-20T21:55:47.529Z,6.80
2023-02-20T21:58:17.955Z,6.80
2023-02-20T22:00:47.254Z,7.30
2023-02-20T22:03:16.352Z,6.80
2023-02-20T22:05:46.470Z,6.20
2023-02-20T22:08:33.315Z,5.80
2023-02-20T22:11:20.604Z,5.50
2023-02-20T22:14:07.922Z,6.40
2023-02-20T22:16:55.349Z,6.60
2023-02-20T22:19:42.572Z,5.90
2023-02-20T22:22:32.352Z,6.00
2023-02-20T22:25:20.292Z,5.80
2023-02-20T22:28:09.153Z,6.00
2023-02-20T22:30:56.721Z,6.10
2023-02-20T22:33:44.103Z,5.80
2023-02-20T22:36:31.548Z,5.40
2023-02-20T22:39:18.845Z,5.20
2023-02-20T22:42:06.285Z,6.00
2023-02-20T22:44:53.453Z,5.10
2023-02-20T22:47:40.435Z,5.50
2023-02-20T22:50:27.931Z,5.00
2023-02-20T22:53:14.947Z,5.50
2023-02-20T22:56:02.194Z,5.30
2023-02-20T22:58:49.489Z,5.30
2023-02-20T23:01:37.253Z,5.20
2023-02-20T23:04:24.754Z,5.20
2023-02-20T23:07:11.966Z,5.70
2023-02-20T23:09:59.190Z,5.40
2023-02-20T23:12:46.508Z,5.00
2023-02-20T23:15:33.836Z,4.90
2023-02-20T23:18:22.904Z,4.70
2023-02-20T23:21:09.709Z,5.00
2023-02-20T23:23:57.029Z,5.30
2023-02-20T23:26:44.453Z,4.90
2023-02-20T23:29:31.407Z,4.40
2023-02-20T23:32:18.854Z,4.20
2023-02-20T23:35:06.310Z,5.00
2023-02-20T23:37:54.249Z,5.10
2023-02-20T23:40:41.771Z,4.40
2023-02-20T23:43:29.090Z,4.30
2023-02-20T23:46:16.517Z,4.40
2023-02-20T23:49:03.435Z,4.60
2023-02-20T23:51:50.761Z,4.60
2023-02-20T23:54:38.379Z,4.00
2023-02-20T23:57:26.634Z,4.80
